TSF weather

Treviso-Sant'Angelo Airport
Treviso, Veneto, Italy

Public forecast

Using degrees Celsius for public forecast. Weather courtesy of forecast.io.

METAR (pilot weather report)

Retrieved 2019/06/20 23:20 UTC (0 seconds ago):

LIPH 202320Z AUTO 02004KT 350V050 9999 FEW230 22/18 Q1013

TAF (pilot weather forecast)

Retrieved 2019/06/20 18:00 UTC (5 hours ago):

TAF LIPH 201700Z 2018/2118 VRB05KT 9999 FEW040 TEMPO 2018/2019 TSRA